sensor_id;sensor_type;location;lat;lon;timestamp;pressure;altitude;pressure_sealevel;temperature;humidity
45113;BME280;30873;53.908;27.576;2023-08-30T00:01:05;1003.1;;;19.6;100
45113;BME280;30873;53.908;27.576;2023-08-30T00:05:29;1003.1;;;19.6;100
45113;BME280;30873;53.908;27.576;2023-08-30T00:10:37;1003.1;;;19.6;100
45113;BME280;30873;53.908;27.576;2023-08-30T00:16:07;1003.1;;;19.6;100
45113;BME280;30873;53.908;27.576;2023-08-30T00:20:49;1003.1;;;19.6;100
45113;BME280;30873;53.908;27.576;2023-08-30T00:26:07;1003.1;;;19.6;100
45113;BME280;30873;53.908;27.576;2023-08-30T00:30:41;1003.1;;;19.6;100
45113;BME280;30873;53.908;27.576;2023-08-30T00:35:43;1003.1;;;19.6;100
45113;BME280;30873;53.908;27.576;2023-08-30T00:41:07;1003.1;;;19.6;100
45113;BME280;30873;53.908;27.576;2023-08-30T00:45:53;1003.1;;;19.6;100
45113;BME280;30873;53.908;27.576;2023-08-30T00:51:09;1003.1;;;19.6;100
45113;BME280;30873;53.908;27.576;2023-08-30T00:55:47;1003.1;;;19.6;100
45113;BME280;30873;53.908;27.576;2023-08-30T01:00:59;1003.1;;;19.6;100
45113;BME280;30873;53.908;27.576;2023-08-30T01:06:07;1003.1;;;19.6;100
45113;BME280;30873;53.908;27.576;2023-08-30T01:10:51;1003.1;;;19.6;100
45113;BME280;30873;53.908;27.576;2023-08-30T01:16:09;1003.1;;;19.6;100
45113;BME280;30873;53.908;27.576;2023-08-30T01:20:41;1003.1;;;19.6;100
45113;BME280;30873;53.908;27.576;2023-08-30T01:25:31;1003.1;;;19.6;100
45113;BME280;30873;53.908;27.576;2023-08-30T01:31:09;1003.1;;;19.6;100
45113;BME280;30873;53.908;27.576;2023-08-30T01:35:58;1003.1;;;19.6;100
45113;BME280;30873;53.908;27.576;2023-08-30T01:41:11;1003.1;;;19.6;100
45113;BME280;30873;53.908;27.576;2023-08-30T01:45:47;1003.1;;;19.6;100
45113;BME280;30873;53.908;27.576;2023-08-30T01:50:57;1003.1;;;19.6;100
45113;BME280;30873;53.908;27.576;2023-08-30T01:56:11;1003.1;;;19.6;100
45113;BME280;30873;53.908;27.576;2023-08-30T02:00:29;1003.1;;;19.6;100
45113;BME280;30873;53.908;27.576;2023-08-30T02:06:08;1003.1;;;19.6;100
45113;BME280;30873;53.908;27.576;2023-08-30T02:10:43;1003.1;;;19.6;100
45113;BME280;30873;53.908;27.576;2023-08-30T02:15:30;1003.1;;;19.6;100
45113;BME280;30873;53.908;27.576;2023-08-30T02:21:11;1003.1;;;19.6;100
45113;BME280;30873;53.908;27.576;2023-08-30T02:25:55;1003.1;;;19.6;100
45113;BME280;30873;53.908;27.576;2023-08-30T02:31:09;1003.1;;;19.6;100
45113;BME280;30873;53.908;27.576;2023-08-30T02:35:41;1003.1;;;19.6;100
45113;BME280;30873;53.908;27.576;2023-08-30T02:41:01;1003.1;;;19.6;100
45113;BME280;30873;53.908;27.576;2023-08-30T02:46:09;1003.1;;;19.6;100
45113;BME280;30873;53.908;27.576;2023-08-30T02:50:57;1003.1;;;19.6;100
45113;BME280;30873;53.908;27.576;2023-08-30T02:56:11;1003.1;;;19.6;100
45113;BME280;30873;53.908;27.576;2023-08-30T03:00:55;1003.1;;;19.6;100
45113;BME280;30873;53.908;27.576;2023-08-30T03:05:41;1003.1;;;19.6;100
45113;BME280;30873;53.908;27.576;2023-08-30T03:11:12;1003.1;;;19.6;100
45113;BME280;30873;53.908;27.576;2023-08-30T03:15:31;1003.1;;;19.6;100
45113;BME280;30873;53.908;27.576;2023-08-30T03:21:11;1003.1;;;19.6;100
45113;BME280;30873;53.908;27.576;2023-08-30T03:25:55;1003.1;;;19.6;100
45113;BME280;30873;53.908;27.576;2023-08-30T03:31:01;1003.1;;;19.6;100
45113;BME280;30873;53.908;27.576;2023-08-30T03:36:10;1003.1;;;19.6;100
45113;BME280;30873;53.908;27.576;2023-08-30T03:40:29;1003.1;;;19.6;100
45113;BME280;30873;53.908;27.576;2023-08-30T03:46:09;1003.1;;;19.6;100
45113;BME280;30873;53.908;27.576;2023-08-30T03:50:29;1003.1;;;19.6;100
45113;BME280;30873;53.908;27.576;2023-08-30T03:55:47;1003.1;;;19.6;100
45113;BME280;30873;53.908;27.576;2023-08-30T04:00:57;1003.1;;;19.6;100
45113;BME280;30873;53.908;27.576;2023-08-30T04:05:55;1003.1;;;19.6;100
45113;BME280;30873;53.908;27.576;2023-08-30T04:11:09;1003.1;;;19.6;100
45113;BME280;30873;53.908;27.576;2023-08-30T04:15:47;1003.1;;;19.6;100
45113;BME280;30873;53.908;27.576;2023-08-30T04:21:01;1003.1;;;19.6;100
45113;BME280;30873;53.908;27.576;2023-08-30T04:26:09;1003.1;;;19.6;100
45113;BME280;30873;53.908;27.576;2023-08-30T04:30:49;1003.1;;;19.6;100
45113;BME280;30873;53.908;27.576;2023-08-30T04:35:35;1003.1;;;19.6;100
45113;BME280;30873;53.908;27.576;2023-08-30T04:40:35;1003.1;;;19.6;100
45113;BME280;30873;53.908;27.576;2023-08-30T04:45:41;1003.1;;;19.6;100
45113;BME280;30873;53.908;27.576;2023-08-30T04:51:09;1003.1;;;19.6;100
45113;BME280;30873;53.908;27.576;2023-08-30T04:55:55;1003.1;;;19.6;100
45113;BME280;30873;53.908;27.576;2023-08-30T05:01:03;1003.1;;;19.6;100
45113;BME280;30873;53.908;27.576;2023-08-30T05:05:29;1003.1;;;19.6;100
45113;BME280;30873;53.908;27.576;2023-08-30T05:11:03;1003.1;;;19.6;100
45113;BME280;30873;53.908;27.576;2023-08-30T05:16:11;1003.1;;;19.6;100
45113;BME280;30873;53.908;27.576;2023-08-30T05:20:41;1003.1;;;19.6;100
45113;BME280;30873;53.908;27.576;2023-08-30T05:25:49;1003.1;;;19.6;100
45113;BME280;30873;53.908;27.576;2023-08-30T05:30:42;1003.1;;;19.6;100
45113;BME280;30873;53.908;27.576;2023-08-30T05:35:35;1003.1;;;19.6;100
45113;BME280;30873;53.908;27.576;2023-08-30T05:41:11;1003.1;;;19.6;100
45113;BME280;30873;53.908;27.576;2023-08-30T05:45:55;1003.1;;;19.6;100
45113;BME280;30873;53.908;27.576;2023-08-30T05:50:59;1003.1;;;19.6;100
45113;BME280;30873;53.908;27.576;2023-08-30T05:55:29;1003.1;;;19.6;100
45113;BME280;30873;53.908;27.576;2023-08-30T06:00:45;1003.1;;;19.6;100
45113;BME280;30873;53.908;27.576;2023-08-30T06:06:14;1003.1;;;19.6;100
45113;BME280;30873;53.908;27.576;2023-08-30T06:10:43;1003.1;;;19.6;100
45113;BME280;30873;53.908;27.576;2023-08-30T06:15:43;1003.1;;;19.6;100
45113;BME280;30873;53.908;27.576;2023-08-30T06:20:29;1003.1;;;19.6;100
45113;BME280;30873;53.908;27.576;2023-08-30T06:26:05;1003.1;;;19.6;100
45113;BME280;30873;53.908;27.576;2023-08-30T06:31:13;1003.1;;;19.6;100
45113;BME280;30873;53.908;27.576;2023-08-30T06:35:43;1003.1;;;19.6;100
45113;BME280;30873;53.908;27.576;2023-08-30T06:41:03;1003.1;;;19.6;100
45113;BME280;30873;53.908;27.576;2023-08-30T06:45:49;1003.1;;;19.6;100
45113;BME280;30873;53.908;27.576;2023-08-30T06:50:37;1003.1;;;19.6;100
45113;BME280;30873;53.908;27.576;2023-08-30T06:56:11;1003.1;;;19.6;100
45113;BME280;30873;53.908;27.576;2023-08-30T07:00:57;1003.1;;;19.6;100
45113;BME280;30873;53.908;27.576;2023-08-30T07:05:29;1003.1;;;19.6;100
45113;BME280;30873;53.908;27.576;2023-08-30T07:10:42;1003.1;;;19.6;100
45113;BME280;30873;53.908;27.576;2023-08-30T07:15:47;1003.1;;;19.6;100
45113;BME280;30873;53.908;27.576;2023-08-30T07:21:09;1003.1;;;19.6;100
45113;BME280;30873;53.908;27.576;2023-08-30T07:25:55;1003.1;;;19.6;100
45113;BME280;30873;53.908;27.576;2023-08-30T07:30:37;1003.1;;;19.6;100
45113;BME280;30873;53.908;27.576;2023-08-30T07:35:57;1003.1;;;19.6;100
45113;BME280;30873;53.908;27.576;2023-08-30T07:41:11;1003.1;;;19.6;100
45113;BME280;30873;53.908;27.576;2023-08-30T07:46:13;1003.1;;;19.6;100
45113;BME280;30873;53.908;27.576;2023-08-30T07:50:29;1003.1;;;19.6;100
45113;BME280;30873;53.908;27.576;2023-08-30T07:55:50;1003.1;;;19.6;100
45113;BME280;30873;53.908;27.576;2023-08-30T08:00:35;1003.1;;;19.6;100
45113;BME280;30873;53.908;27.576;2023-08-30T08:06:05;1003.1;;;19.6;100
45113;BME280;30873;53.908;27.576;2023-08-30T08:11:13;1003.1;;;19.6;100
45113;BME280;30873;53.908;27.576;2023-08-30T08:15:51;1003.1;;;19.6;100
45113;BME280;30873;53.908;27.576;2023-08-30T08:21:05;1003.1;;;19.6;100
45113;BME280;30873;53.908;27.576;2023-08-30T08:25:56;1003.1;;;19.6;100
45113;BME280;30873;53.908;27.576;2023-08-30T08:31:06;1003.1;;;19.6;100
45113;BME280;30873;53.908;27.576;2023-08-30T08:36:11;1003.1;;;19.6;100
45113;BME280;30873;53.908;27.576;2023-08-30T08:40:50;1003.1;;;19.6;100
45113;BME280;30873;53.908;27.576;2023-08-30T08:45:29;1003.1;;;19.6;100
45113;BME280;30873;53.908;27.576;2023-08-30T08:50:30;1003.1;;;19.6;100
45113;BME280;30873;53.908;27.576;2023-08-30T08:56:02;1003.1;;;19.6;100
45113;BME280;30873;53.908;27.576;2023-08-30T09:01:12;1003.1;;;19.6;100
45113;BME280;30873;53.908;27.576;2023-08-30T09:05:35;1003.1;;;19.6;100
45113;BME280;30873;53.908;27.576;2023-08-30T09:11:05;1003.1;;;19.6;100
45113;BME280;30873;53.908;27.576;2023-08-30T09:16:14;1003.1;;;19.6;100
45113;BME280;30873;53.908;27.576;2023-08-30T09:20:49;1003.1;;;19.6;100
45113;BME280;30873;53.908;27.576;2023-08-30T09:25:44;1003.1;;;19.6;100
45113;BME280;30873;53.908;27.576;2023-08-30T09:30:57;1003.1;;;19.6;100
45113;BME280;30873;53.908;27.576;2023-08-30T09:35:43;1003.1;;;19.6;100
45113;BME280;30873;53.908;27.576;2023-08-30T09:40:35;1003.1;;;19.6;100
45113;BME280;30873;53.908;27.576;2023-08-30T09:45:35;1003.1;;;19.6;100
45113;BME280;30873;53.908;27.576;2023-08-30T09:51:11;1003.1;;;19.6;100
45113;BME280;30873;53.908;27.576;2023-08-30T09:55:40;1003.1;;;19.6;100
45113;BME280;30873;53.908;27.576;2023-08-30T10:00:32;1003.1;;;19.6;100
45113;BME280;30873;53.908;27.576;2023-08-30T10:06:14;1003.1;;;19.6;100
45113;BME280;30873;53.908;27.576;2023-08-30T10:10:36;1003.1;;;19.6;100
45113;BME280;30873;53.908;27.576;2023-08-30T10:16:04;1003.1;;;19.6;100
45113;BME280;30873;53.908;27.576;2023-08-30T10:20:56;1003.1;;;19.6;100
45113;BME280;30873;53.908;27.576;2023-08-30T10:25:48;1003.1;;;19.6;100
45113;BME280;30873;53.908;27.576;2023-08-30T10:30:56;1003.1;;;19.6;100
45113;BME280;30873;53.908;27.576;2023-08-30T10:35:49;1003.1;;;19.6;100
45113;BME280;30873;53.908;27.576;2023-08-30T10:41:12;1003.1;;;19.6;100
45113;BME280;30873;53.908;27.576;2023-08-30T10:45:57;1003.1;;;19.6;100
45113;BME280;30873;53.908;27.576;2023-08-30T10:51:04;1003.1;;;19.6;100
45113;BME280;30873;53.908;27.576;2023-08-30T10:56:13;1003.1;;;19.6;100
45113;BME280;30873;53.908;27.576;2023-08-30T11:00:30;1003.1;;;19.6;100
45113;BME280;30873;53.908;27.576;2023-08-30T11:06:04;1003.1;;;19.6;100
45113;BME280;30873;53.908;27.576;2023-08-30T11:11:05;1003.1;;;19.6;100
45113;BME280;30873;53.908;27.576;2023-08-30T11:15:30;1003.1;;;19.6;100
45113;BME280;30873;53.908;27.576;2023-08-30T11:20:30;1003.1;;;19.6;100
45113;BME280;30873;53.908;27.576;2023-08-30T11:25:30;1003.1;;;19.6;100
45113;BME280;30873;53.908;27.576;2023-08-30T11:31:17;1003.1;;;19.6;100
45113;BME280;30873;53.908;27.576;2023-08-30T11:35:42;1003.1;;;19.6;100
45113;BME280;30873;53.908;27.576;2023-08-30T11:41:04;1003.1;;;19.6;100
45113;BME280;30873;53.908;27.576;2023-08-30T11:46:10;1003.1;;;19.6;100
45113;BME280;30873;53.908;27.576;2023-08-30T11:50:30;1003.1;;;19.6;100
45113;BME280;30873;53.908;27.576;2023-08-30T11:55:50;1003.1;;;19.6;100
45113;BME280;30873;53.908;27.576;2023-08-30T12:00:32;1003.1;;;19.6;100
45113;BME280;30873;53.908;27.576;2023-08-30T12:05:44;1003.1;;;19.6;100
45113;BME280;30873;53.908;27.576;2023-08-30T12:10:34;1003.1;;;19.6;100
45113;BME280;30873;53.908;27.576;2023-08-30T12:15:38;1003.1;;;19.6;100
45113;BME280;30873;53.908;27.576;2023-08-30T12:20:58;1003.1;;;19.6;100
45113;BME280;30873;53.908;27.576;2023-08-30T12:25:36;1003.1;;;19.6;100
45113;BME280;30873;53.908;27.576;2023-08-30T12:31:04;1003.1;;;19.6;100
45113;BME280;30873;53.908;27.576;2023-08-30T12:36:10;1003.1;;;19.6;100
45113;BME280;30873;53.908;27.576;2023-08-30T12:40:48;1003.1;;;19.6;100
45113;BME280;30873;53.908;27.576;2023-08-30T12:46:04;1003.1;;;19.6;100
45113;BME280;30873;53.908;27.576;2023-08-30T12:50:44;1003.1;;;19.6;100
45113;BME280;30873;53.908;27.576;2023-08-30T12:55:30;1003.1;;;19.6;100
45113;BME280;30873;53.908;27.576;2023-08-30T13:00:42;1003.1;;;19.6;100
45113;BME280;30873;53.908;27.576;2023-08-30T13:05:42;1003.1;;;19.6;100
45113;BME280;30873;53.908;27.576;2023-08-30T13:10:52;1003.1;;;19.6;100
45113;BME280;30873;53.908;27.576;2023-08-30T13:16:12;1003.1;;;19.6;100
45113;BME280;30873;53.908;27.576;2023-08-30T13:21:12;1003.1;;;19.6;100
45113;BME280;30873;53.908;27.576;2023-08-30T13:25:58;1003.1;;;19.6;100
45113;BME280;30873;53.908;27.576;2023-08-30T13:30:48;1003.1;;;19.6;100
45113;BME280;30873;53.908;27.576;2023-08-30T13:36:12;1003.1;;;19.6;100
45113;BME280;30873;53.908;27.576;2023-08-30T13:40:42;1003.1;;;19.6;100
45113;BME280;30873;53.908;27.576;2023-08-30T13:45:42;1003.1;;;19.6;100
45113;BME280;30873;53.908;27.576;2023-08-30T13:50:40;1003.1;;;19.6;100
45113;BME280;30873;53.908;27.576;2023-08-30T13:55:36;1003.1;;;19.6;100
45113;BME280;30873;53.908;27.576;2023-08-30T14:00:58;1003.1;;;19.6;100
45113;BME280;30873;53.908;27.576;2023-08-30T14:05:58;1003.1;;;19.6;100
45113;BME280;30873;53.908;27.576;2023-08-30T14:11:12;1003.1;;;19.6;100
45113;BME280;30873;53.908;27.576;2023-08-30T14:15:58;1003.1;;;19.6;100
45113;BME280;30873;53.908;27.576;2023-08-30T14:20:48;1003.1;;;19.6;100
45113;BME280;30873;53.908;27.576;2023-08-30T14:26:10;1003.1;;;19.6;100
45113;BME280;30873;53.908;27.576;2023-08-30T14:30:30;1003.1;;;19.6;100
45113;BME280;30873;53.908;27.576;2023-08-30T14:35:48;1003.1;;;19.6;100
45113;BME280;30873;53.908;27.576;2023-08-30T14:40:30;1003.1;;;19.6;100
45113;BME280;30873;53.908;27.576;2023-08-30T14:45:40;1003.1;;;19.6;100
45113;BME280;30873;53.908;27.576;2023-08-30T14:50:58;1003.1;;;19.6;100
45113;BME280;30873;53.908;27.576;2023-08-30T14:55:58;1003.1;;;19.6;100
45113;BME280;30873;53.908;27.576;2023-08-30T15:01:12;1003.1;;;19.6;100
45113;BME280;30873;53.908;27.576;2023-08-30T15:05:54;1003.1;;;19.6;100
45113;BME280;30873;53.908;27.576;2023-08-30T15:10:48;1003.1;;;19.6;100
45113;BME280;30873;53.908;27.576;2023-08-30T15:16:10;1003.1;;;19.6;100
45113;BME280;30873;53.908;27.576;2023-08-30T15:20:36;1003.1;;;19.6;100
45113;BME280;30873;53.908;27.576;2023-08-30T15:25:46;1003.1;;;19.6;100
45113;BME280;30873;53.908;27.576;2023-08-30T15:30:30;1003.1;;;19.6;100
45113;BME280;30873;53.908;27.576;2023-08-30T15:35:42;1003.1;;;19.6;100
45113;BME280;30873;53.908;27.576;2023-08-30T15:40:56;1003.1;;;19.6;100
45113;BME280;30873;53.908;27.576;2023-08-30T15:45:40;1003.1;;;19.6;100
45113;BME280;30873;53.908;27.576;2023-08-30T15:51:12;1003.1;;;19.6;100
45113;BME280;30873;53.908;27.576;2023-08-30T15:55:52;1003.1;;;19.6;100
45113;BME280;30873;53.908;27.576;2023-08-30T16:00:36;1003.1;;;19.6;100
45113;BME280;30873;53.908;27.576;2023-08-30T16:06:14;1007;;;24.9;100
45113;BME280;30873;53.908;27.576;2023-08-30T16:10:36;1007;;;24.9;100
45113;BME280;30873;53.908;27.576;2023-08-30T16:16:04;1007;;;24.9;100
45113;BME280;30873;53.908;27.576;2023-08-30T16:20:36;1007;;;24.9;100
45113;BME280;30873;53.908;27.576;2023-08-30T16:25:42;1007;;;24.9;100
45113;BME280;30873;53.908;27.576;2023-08-30T16:30:58;1007;;;24.9;100
45113;BME280;30873;53.908;27.576;2023-08-30T16:35:59;1007;;;24.9;100
45113;BME280;30873;53.908;27.576;2023-08-30T16:41:06;1007;;;24.9;100
45113;BME280;30873;53.908;27.576;2023-08-30T16:45:52;1007;;;24.9;100
45113;BME280;30873;53.908;27.576;2023-08-30T16:50:50;1007;;;24.9;100
45113;BME280;30873;53.908;27.576;2023-08-30T16:56:12;1007;;;24.9;100
45113;BME280;30873;53.908;27.576;2023-08-30T17:01:12;1007;;;24.9;100
45113;BME280;30873;53.908;27.576;2023-08-30T17:05:30;1007;;;24.9;100
45113;BME280;30873;53.908;27.576;2023-08-30T17:11:12;1007;;;24.9;100
45113;BME280;30873;53.908;27.576;2023-08-30T17:15:46;1007;;;24.9;100
45113;BME280;30873;53.908;27.576;2023-08-30T17:21:12;1007;;;24.9;100
45113;BME280;30873;53.908;27.576;2023-08-30T17:25:58;1007;;;24.9;100
45113;BME280;30873;53.908;27.576;2023-08-30T17:30:50;1007;;;24.9;100
45113;BME280;30873;53.908;27.576;2023-08-30T17:36:12;1007;;;24.9;100
45113;BME280;30873;53.908;27.576;2023-08-30T17:40:56;1007;;;24.9;100
45113;BME280;30873;53.908;27.576;2023-08-30T17:46:12;1007;;;24.9;100
45113;BME280;30873;53.908;27.576;2023-08-30T17:50:48;1007;;;24.9;100
45113;BME280;30873;53.908;27.576;2023-08-30T17:55:34;1007;;;24.9;100
45113;BME280;30873;53.908;27.576;2023-08-30T18:01:12;1007;;;24.9;100
45113;BME280;30873;53.908;27.576;2023-08-30T18:05:30;1007;;;24.9;100
45113;BME280;30873;53.908;27.576;2023-08-30T18:11:12;1007;;;24.9;100
45113;BME280;30873;53.908;27.576;2023-08-30T18:15:38;1007;;;24.9;100
45113;BME280;30873;53.908;27.576;2023-08-30T18:20:30;1007;;;24.9;100
45113;BME280;30873;53.908;27.576;2023-08-30T18:26:00;1007;;;24.9;100
45113;BME280;30873;53.908;27.576;2023-08-30T18:30:50;1007;;;24.9;100
45113;BME280;30873;53.908;27.576;2023-08-30T18:36:08;1007;;;24.9;100
45113;BME280;30873;53.908;27.576;2023-08-30T18:40:38;1007;;;24.9;100
45113;BME280;30873;53.908;27.576;2023-08-30T18:45:43;1007;;;24.9;100
45113;BME280;30873;53.908;27.576;2023-08-30T18:51:10;1007;;;24.9;100
45113;BME280;30873;53.908;27.576;2023-08-30T18:55:36;1007;;;24.9;100
45113;BME280;30873;53.908;27.576;2023-08-30T19:01:12;1007;;;24.9;100
45113;BME280;30873;53.908;27.576;2023-08-30T19:05:32;1007;;;24.9;100
45113;BME280;30873;53.908;27.576;2023-08-30T19:11:04;1007;;;24.9;100
45113;BME280;30873;53.908;27.576;2023-08-30T19:16:10;1007;;;24.9;100
45113;BME280;30873;53.908;27.576;2023-08-30T19:20:54;1007;;;24.9;100
45113;BME280;30873;53.908;27.576;2023-08-30T19:26:10;1007;;;24.9;100
45113;BME280;30873;53.908;27.576;2023-08-30T19:30:44;1007;;;24.9;100
45113;BME280;30873;53.908;27.576;2023-08-30T19:35:30;1007;;;24.9;100
45113;BME280;30873;53.908;27.576;2023-08-30T19:41:06;1007;;;24.9;100
45113;BME280;30873;53.908;27.576;2023-08-30T19:45:40;1007;;;24.9;100
45113;BME280;30873;53.908;27.576;2023-08-30T19:51:08;1007;;;24.9;100
45113;BME280;30873;53.908;27.576;2023-08-30T19:55:52;1007;;;24.9;100
45113;BME280;30873;53.908;27.576;2023-08-30T20:00:50;1007;;;24.9;100
45113;BME280;30873;53.908;27.576;2023-08-30T20:06:10;1007;;;24.9;100
45113;BME280;30873;53.908;27.576;2023-08-30T20:10:59;1006.7;;;26;100
45113;BME280;30873;53.908;27.576;2023-08-30T20:16:10;883.1;;;19.4;75
45113;BME280;30873;53.908;27.576;2023-08-30T20:20:50;1006.9;;;25.6;100
45113;BME280;30873;53.908;27.576;2023-08-30T20:25:40;1006.9;;;25.3;100
45113;BME280;30873;53.908;27.576;2023-08-30T20:31:10;1006.9;;;25.1;100
45113;BME280;30873;53.908;27.576;2023-08-30T20:35:30;1006.9;;;25;100
45113;BME280;30873;53.908;27.576;2023-08-30T20:41:10;1007;;;24.7;100
45113;BME280;30873;53.908;27.576;2023-08-30T20:45:58;1007.1;;;24.6;100
45113;BME280;30873;53.908;27.576;2023-08-30T20:50:42;1007.1;;;24.5;100
45113;BME280;30873;53.908;27.576;2023-08-30T20:56:12;1007.2;;;24.6;100
45113;BME280;30873;53.908;27.576;2023-08-30T21:00:56;1007.3;;;24.5;100
45113;BME280;30873;53.908;27.576;2023-08-30T21:06:10;1007.4;;;24.5;100
45113;BME280;30873;53.908;27.576;2023-08-30T21:10:58;1007.4;;;24.5;100
45113;BME280;30873;53.908;27.576;2023-08-30T21:15:30;1007.4;;;24.5;100
45113;BME280;30873;53.908;27.576;2023-08-30T21:21:10;1007.4;;;24.5;100
45113;BME280;30873;53.908;27.576;2023-08-30T21:25:42;1007.4;;;24.5;100
45113;BME280;30873;53.908;27.576;2023-08-30T21:31:10;1007.4;;;24.5;100
45113;BME280;30873;53.908;27.576;2023-08-30T21:35:58;1007.4;;;24.5;100
45113;BME280;30873;53.908;27.576;2023-08-30T21:40:42;1007.4;;;24.5;100
45113;BME280;30873;53.908;27.576;2023-08-30T21:46:12;1007.4;;;24.5;100
45113;BME280;30873;53.908;27.576;2023-08-30T21:50:56;1007.4;;;24.5;100
45113;BME280;30873;53.908;27.576;2023-08-30T21:55:30;1007.4;;;24.5;100
45113;BME280;30873;53.908;27.576;2023-08-30T22:00:51;1007.4;;;24.5;100
45113;BME280;30873;53.908;27.576;2023-08-30T22:05:46;1007.4;;;24.5;100
45113;BME280;30873;53.908;27.576;2023-08-30T22:11:10;1007.4;;;24.5;100
45113;BME280;30873;53.908;27.576;2023-08-30T22:15:36;1007.4;;;24.5;100
45113;BME280;30873;53.908;27.576;2023-08-30T22:20:30;1007.4;;;24.5;100
45113;BME280;30873;53.908;27.576;2023-08-30T22:25:58;1007.4;;;24.5;100
45113;BME280;30873;53.908;27.576;2023-08-30T22:30:50;1007.4;;;24.5;100
45113;BME280;30873;53.908;27.576;2023-08-30T22:36:12;1007.4;;;24.5;100
45113;BME280;30873;53.908;27.576;2023-08-30T22:40:54;1007.4;;;24.5;100
45113;BME280;30873;53.908;27.576;2023-08-30T22:45:40;1007.4;;;24.5;100
45113;BME280;30873;53.908;27.576;2023-08-30T22:50:36;1007.4;;;24.5;100
45113;BME280;30873;53.908;27.576;2023-08-30T22:55:41;1007.4;;;24.5;100
45113;BME280;30873;53.908;27.576;2023-08-30T23:01:12;1007.4;;;24.5;100
45113;BME280;30873;53.908;27.576;2023-08-30T23:05:42;1007.4;;;24.5;100
45113;BME280;30873;53.908;27.576;2023-08-30T23:10:50;1007.4;;;24.5;100
45113;BME280;30873;53.908;27.576;2023-08-30T23:15:58;1007.4;;;24.5;100
45113;BME280;30873;53.908;27.576;2023-08-30T23:20:50;1007.4;;;24.5;100
45113;BME280;30873;53.908;27.576;2023-08-30T23:26:10;1007.4;;;24.5;100
45113;BME280;30873;53.908;27.576;2023-08-30T23:30:54;1007.4;;;24.5;100
45113;BME280;30873;53.908;27.576;2023-08-30T23:36:02;1007.4;;;24.5;100
45113;BME280;30873;53.908;27.576;2023-08-30T23:40:30;1007.4;;;24.5;100
45113;BME280;30873;53.908;27.576;2023-08-30T23:45:30;1007.4;;;24.5;100
45113;BME280;30873;53.908;27.576;2023-08-30T23:51:10;1007.4;;;24.5;100
45113;BME280;30873;53.908;27.576;2023-08-30T23:55:30;1007.4;;;24.5;100
